This is the latest recevied weather packets stored in our database for station/object IK3SVW-3. If no packets are shown the sender has not sent any weather packets the latest 1 day(s).
| Time | Temp. | Humidity | Pressure | Rain* | Wind** | Luminosity | Snow |
|---|---|---|---|---|---|---|---|
| 1778087754 | 17.78° C | 85% | 1008 hPa | 0 mm | - | - | - |
| 1778086127 | 17.78° C | 86% | 1008 hPa | 0 mm | - | - | - |
| 1778082526 | 18.33° C | 87% | 1008 hPa | 0 mm | - | - | - |
| 1778080546 | 18.33° C | 90% | 1008 hPa | 0 mm | - | - | - |
| 1778077966 | 17.22° C | 94% | 1008 hPa | 0 mm | - | - | - |
| 1778076319 | 17.22° C | 92% | 1009 hPa | 0 mm | - | - | - |
| 1778073767 | 18.33° C | 79% | 1009 hPa | 0 mm | - | - | - |
| 1778070406 | 19.44° C | 75% | 1009 hPa | 0 mm | - | - | - |
| 1778065486 | 17.78° C | 84% | 1010 hPa | 0 mm | - | - | - |
| 1778065194 | 17.78° C | 85% | 1010 hPa | 0 mm | - | - | - |
| 1778063206 | 18.33° C | 86% | 1010 hPa | 0 mm | - | - | - |
| 1778059606 | 17.78° C | 83% | 1010 hPa | 0 mm | - | - | - |
| 1778058286 | 18.33° C | 84% | 1010 hPa | 0 mm | - | - | - |
| 1778055766 | 17.22° C | 92% | 1009 hPa | 0 mm | - | - | - |
| 1778053728 | 16.67° C | 95% | 1010 hPa | 0 mm | - | - | - |
| 1778051088 | 16.11° C | 96% | 1010 hPa | 0 mm | - | - | - |
| 1778049467 | 15° C | 97% | 1010 hPa | 0 mm | - | - | - |
| 1778048153 | 15° C | 97% | 1010 hPa | 0 mm | - | - | - |
| 1778047490 | 15° C | 97% | 1010 hPa | 0 mm | - | - | - |
| 1778047188 | 15° C | 97% | 1010 hPa | 0 mm | - | - | - |
| 1778045865 | 14.44° C | 98% | 1010 hPa | 0 mm | - | - | - |
| 1778045205 | 14.44° C | 97% | 1010 hPa | 0 mm | - | - | - |
| 1778043585 | 14.44° C | 97% | 1010 hPa | 0 mm | - | - | - |
| 1778041605 | 13.89° C | 97% | 1010 hPa | 0 mm | - | - | - |
| 1778040286 | 13.89° C | 97% | 1010 hPa | 0 mm | - | - | - |
* Rain latest hour (hover to see other rain measurements)
** Current wind speed in m/s (hover to see current wind gust speed)